Bookmark and Share
Track history (hours):
 

Albert Maersk

Last reported at 2014-Apr-18 08:33 UTC. Time now 2014-Apr-20 05:48 UTC.
Position N 29°58' E 121°55'.

MMSI: 220259928.

NotesDate/timePositionNaut miles runAvg speedWind from/ knotsBaromVisibWave heightAir tempDewpointWater temp
2014-Apr-18 08:33N 29°58' E 121°55'1010.0
2014-Apr-18 07:33N 29°56' E 122°06'1211.7
2014-Apr-18 06:33N 29°47' E 122°16'1010.0
2014-Apr-18 05:34N 29°44' E 122°27'3 3.2
2014-Apr-18 04:33N 29°43' E 122°30'10 9.9
2014-Apr-18 03:33N 29°42' E 122°42'16 3.1
2014-Apr-17 22:19N 29°51' E 122°58'5010.3
2014-Apr-17 17:29N 30°31' E 122°24'9 9.8
2014-Apr-17 16:32N 30°34' E 122°13'8 0.6
2014-Apr-17 02:31N 30°36' E 122°05'1111.1
2014-Apr-17 01:33N 30°33' E 122°17'9 8.7
2014-Apr-17 00:33N 30°34' E 122°27'4 1.7
2014-Apr-16 22:18N 30°33' E 122°22'7 9.6
2014-Apr-16 21:32N 30°34' E 122°31'1512.9
2014-Apr-16 20:24N 30°34' E 122°48'50614.9
2014-Apr-15 10:31N 31°43' E 132°34'1414.3
2014-Apr-15 09:30N 31°50' E 132°49'39114.0
2014-Apr-14 05:33N 34°58' E 139°39'24 3.4
2014-Apr-13 22:33N 35°22' E 139°42'1010.3
2014-Apr-13 21:33N 35°13' E 139°47'1010.5
2014-Apr-13 20:33N 35°02' E 139°43'1312.8
2014-Apr-13 19:33N 34°50' E 139°47'1211.9
2014-Apr-13 18:30N 34°49' E 140°03'1515.7
2014-Apr-13 17:34N 34°57' E 140°18'1615.3
2014-Apr-13 16:32N 35°05' E 140°34'1515.4
2014-Apr-13 15:33N 35°17' E 140°45'1715.3
2014-Apr-13 14:26N 35°31' E 140°57'1214.2
2014-Apr-13 13:33N 35°42' E 141°04'20415.0
2014-Apr-13 00:00N 38°36' E 143°18'38516.0 350 / 131019.0 0.5 6.0 3.0
2014-Apr-12 00:00N 43°54' E 148°06'17114.2 300 / 58990.0 7.0-1.0 1.0
2014-Apr-11 12:00N 45°42' E 151°12'20534.2 250 / 24984.0 3.0-1.0 -0.0
2014-Apr-11 06:00N 46°30' E 156°00'6611.0 270 / 30987.0 5.4 1.5-1.0 1.0
2014-Apr-11 00:00N 47°18' E 154°54'9415.7 280 / 17985.0 2.0 2.0 1.0
2014-Apr-10 18:00N 48°06' E 156°54'9315.5 150 / 31997.5 2.0 1.0
2014-Apr-10 12:00N 48°54' E 158°54'19015.8 170 / 51006.0 0.5 1.0 2.0
2014-Apr-10 00:00N 50°24' E 163°12'27815.4 330 / 30995.0 3.5 2.0 2.0
2014-Apr-09 06:00N 52°24' E 169°54'7913.1 020 / 15979.010.8 1.0 5.0 3.0
2014-Apr-09 00:00N 52°54' E 171°54'18115.1 040 / 9980.0 0.5 4.0 3.0
2014-Apr-08 12:00N 53°36' E 176°48'   210 / 20983.0 2.0 3.0 3.0

Dump ship's entire track history

sailing weather and tide predictions

Albert Maersk — OUOW2 — position and weather